Time;durP1;ratioP1;P1;durP2;ratioP2;P2;SDS_P1;SDS_P2;PMS_P1;PMS_P2;Temp;Humidity;BMP_temperature;BMP_pressure;BME280_temperature;BME280_humidity;BME280_pressure;Samples;Min_cycle;Max_cycle;Signal;HPM_P1;HPM_P2
2024/03/15 00:00:50;;;;;;;;;;;10.40;57.70;;;;;;5073464;28;19932;-74
2024/03/15 00:03:16;;;;;;;;;;;10.40;58.40;;;;;;5072303;28;20266;-71
2024/03/15 00:05:43;;;;;;;;;;;10.40;58.20;;;;;;5072350;28;19931;-70
2024/03/15 00:08:09;;;;;;;;;;;10.40;58.30;;;;;;5073652;28;19932;-70
2024/03/15 00:10:35;;;;;;;;;;;10.30;58.70;;;;;;5073233;28;20289;-70
2024/03/15 00:13:03;;;;;;;;;;;10.30;58.80;;;;;;5072107;28;19916;-70
2024/03/15 00:15:30;;;;;;;;;;;10.20;58.50;;;;;;5073651;28;19933;-76
2024/03/15 00:17:55;;;;;;;;;;;10.20;58.50;;;;;;5072395;28;20365;-70
2024/03/15 00:20:22;;;;;;;;;;;10.10;59.00;;;;;;5071491;28;19978;-69
2024/03/15 00:22:50;;;;;;;;;;;10.00;58.40;;;;;;5072106;28;19959;-70
2024/03/15 00:25:20;;;;;;;;;;;9.90;58.50;;;;;;5072140;28;19924;-76
2024/03/15 00:27:46;;;;;;;;;;;9.80;57.70;;;;;;5088901;28;19916;-69
2024/03/15 00:30:13;;;;;;;;;;;9.80;58.70;;;;;;5072908;28;19969;-70
2024/03/15 00:32:39;;;;;;;;;;;9.70;58.40;;;;;;5072053;28;19921;-70
2024/03/15 00:35:05;;;;;;;;;;;9.70;58.70;;;;;;5071797;28;19924;-70
2024/03/15 00:37:31;;;;;;;;;;;9.60;58.30;;;;;;5071841;28;19916;-74
2024/03/15 00:39:58;;;;;;;;;;;9.60;59.20;;;;;;5073283;28;20430;-70
2024/03/15 00:42:24;;;;;;;;;;;9.60;59.30;;;;;;5071182;28;19920;-69
2024/03/15 00:44:50;;;;;;;;;;;9.50;60.10;;;;;;5073242;28;19932;-70
2024/03/15 00:47:16;;;;;;;;;;;9.50;59.80;;;;;;5072993;28;19916;-70
2024/03/15 00:49:42;;;;;;;;;;;9.50;60.40;;;;;;5071916;28;19977;-70
2024/03/15 00:52:08;;;;;;;;;;;9.50;60.10;;;;;;5071037;28;19921;-76
2024/03/15 00:54:34;;;;;;;;;;;9.50;60.60;;;;;;5072891;28;19924;-70
2024/03/15 00:57:01;;;;;;;;;;;9.50;60.60;;;;;;5053851;28;19923;-75
2024/03/15 00:59:27;;;;;;;;;;;9.50;59.80;;;;;;5071501;28;19929;-70
2024/03/15 01:01:53;;;;;;;;;;;9.50;60.00;;;;;;5054066;28;19924;-73
2024/03/15 01:04:19;;;;;;;;;;;9.50;59.90;;;;;;5071430;28;19925;-76
2024/03/15 01:06:45;;;;;;;;;;;9.40;59.90;;;;;;5073081;28;19920;-76
2024/03/15 01:09:13;;;;;;;;;;;9.40;60.40;;;;;;5072361;28;20430;-70
2024/03/15 01:11:39;;;;;;;;;;;9.40;60.70;;;;;;5070603;28;19931;-76
2024/03/15 01:14:05;;;;;;;;;;;9.30;60.30;;;;;;5071359;28;19917;-71
2024/03/15 01:16:31;;;;;;;;;;;9.30;60.70;;;;;;5071341;28;19923;-75
2024/03/15 01:18:57;;;;;;;;;;;9.30;60.40;;;;;;5054620;28;20425;-76
2024/03/15 01:21:23;;;;;;;;;;;9.20;60.50;;;;;;5070810;28;20206;-76
2024/03/15 01:23:49;;;;;;;;;;;9.10;61.00;;;;;;5071335;28;20011;-70
2024/03/15 01:26:15;;;;;;;;;;;9.00;61.00;;;;;;5071493;28;20019;-75
2024/03/15 01:28:41;;;;;;;;;;;9.00;61.20;;;;;;5071264;28;19962;-75
2024/03/15 01:31:07;;;;;;;;;;;8.90;60.70;;;;;;5070510;28;19929;-75
2024/03/15 01:33:33;;;;;;;;;;;8.90;61.20;;;;;;5072222;28;20043;-70
2024/03/15 01:35:59;;;;;;;;;;;8.80;61.50;;;;;;5071325;28;20361;-70
2024/03/15 01:38:25;;;;;;;;;;;8.80;61.30;;;;;;5071330;28;19920;-71
2024/03/15 01:40:51;;;;;;;;;;;8.80;61.40;;;;;;5087401;28;20369;-70
2024/03/15 01:43:17;;;;;;;;;;;8.70;61.50;;;;;;5070829;28;19923;-76
2024/03/15 01:45:43;;;;;;;;;;;8.70;61.30;;;;;;5072446;28;19932;-69
2024/03/15 01:48:11;;;;;;;;;;;8.70;61.50;;;;;;5072228;28;20646;-76
2024/03/15 01:50:37;;;;;;;;;;;8.60;61.40;;;;;;5071540;28;19935;-70
2024/03/15 01:53:04;;;;;;;;;;;8.60;61.90;;;;;;5070568;28;20008;-69
2024/03/15 01:55:32;;;;;;;;;;;8.50;62.00;;;;;;5071976;28;19998;-70
2024/03/15 01:57:59;;;;;;;;;;;8.40;61.60;;;;;;5071778;28;20298;-69
2024/03/15 02:00:25;;;;;;;;;;;8.40;62.60;;;;;;5071239;28;19925;-75
2024/03/15 02:02:52;;;;;;;;;;;8.40;62.50;;;;;;5071644;28;19924;-76
2024/03/15 02:05:17;;;;;;;;;;;8.30;61.80;;;;;;5071468;28;19999;-74
2024/03/15 02:07:43;;;;;;;;;;;8.30;62.50;;;;;;5071716;28;19920;-70
2024/03/15 02:10:12;;;;;;;;;;;8.20;62.50;;;;;;5069655;28;20070;-76
2024/03/15 02:12:38;;;;;;;;;;;8.20;62.60;;;;;;5070134;28;19917;-75
2024/03/15 02:15:17;;;;;;;;;;;8.10;62.80;;;;;;5070238;28;20305;-76
2024/03/15 02:17:43;;;;;;;;;;;8.10;63.20;;;;;;5070500;28;19966;-76
2024/03/15 02:20:12;;;;;;;;;;;8.00;63.20;;;;;;5071166;28;19928;-75
2024/03/15 02:22:39;;;;;;;;;;;7.90;63.40;;;;;;5087094;28;19938;-76
2024/03/15 02:25:07;;;;;;;;;;;7.90;63.40;;;;;;5070490;28;20001;-75
2024/03/15 02:27:33;;;;;;;;;;;7.80;63.10;;;;;;5070408;28;19923;-70
2024/03/15 02:30:00;;;;;;;;;;;7.90;63.20;;;;;;5071407;28;19935;-75
2024/03/15 02:32:26;;;;;;;;;;;7.70;62.90;;;;;;5069807;28;20300;-70
2024/03/15 02:34:52;;;;;;;;;;;7.80;63.00;;;;;;5053595;28;19924;-70
2024/03/15 02:37:18;;;;;;;;;;;7.70;63.10;;;;;;5087028;28;19916;-75
2024/03/15 02:39:44;;;;;;;;;;;7.70;62.90;;;;;;5071711;28;19987;-76
2024/03/15 02:42:10;;;;;;;;;;;7.60;62.30;;;;;;5086443;28;20290;-70
2024/03/15 02:44:39;;;;;;;;;;;7.60;63.30;;;;;;5071287;28;19929;-70
2024/03/15 02:47:06;;;;;;;;;;;7.40;63.50;;;;;;5086796;28;19916;-74
2024/03/15 02:49:32;;;;;;;;;;;7.40;63.80;;;;;;5071277;28;19924;-76
2024/03/15 02:51:58;;;;;;;;;;;7.40;63.50;;;;;;5069456;28;19924;-76
2024/03/15 02:54:24;;;;;;;;;;;7.30;63.50;;;;;;5071245;28;19956;-70
2024/03/15 02:56:50;;;;;;;;;;;7.30;63.20;;;;;;5071250;28;19920;-75
2024/03/15 02:59:16;;;;;;;;;;;7.30;63.30;;;;;;5069978;28;19928;-70
2024/03/15 03:01:46;;;;;;;;;;;7.30;63.80;;;;;;5052793;28;19939;-70
2024/03/15 03:04:12;;;;;;;;;;;7.30;64.00;;;;;;5053697;28;20015;-76
2024/03/15 03:06:39;;;;;;;;;;;7.30;63.60;;;;;;5071300;28;19974;-76
2024/03/15 03:09:06;;;;;;;;;;;7.30;63.60;;;;;;5069975;28;19916;-76
2024/03/15 03:11:32;;;;;;;;;;;7.30;63.60;;;;;;5070495;28;19930;-70
2024/03/15 03:13:59;;;;;;;;;;;7.20;64.10;;;;;;5070778;28;19917;-70
2024/03/15 03:16:25;;;;;;;;;;;7.10;63.50;;;;;;5071048;28;19927;-70
2024/03/15 03:18:54;;;;;;;;;;;7.10;63.80;;;;;;5069767;28;20388;-70
2024/03/15 03:21:20;;;;;;;;;;;7.10;63.90;;;;;;5071669;28;20356;-76
2024/03/15 03:23:46;;;;;;;;;;;7.00;64.10;;;;;;5073380;28;19917;-70
2024/03/15 03:26:12;;;;;;;;;;;6.90;63.90;;;;;;5073435;28;19920;-70
2024/03/15 03:28:38;;;;;;;;;;;6.90;63.90;;;;;;5074606;28;19920;-70
2024/03/15 03:31:05;;;;;;;;;;;6.80;64.00;;;;;;5056080;28;19925;-69
2024/03/15 03:33:31;;;;;;;;;;;6.80;64.30;;;;;;5074120;28;20287;-76
2024/03/15 03:35:57;;;;;;;;;;;6.80;64.40;;;;;;5056071;28;19925;-76
2024/03/15 03:38:23;;;;;;;;;;;6.70;64.90;;;;;;5073012;28;19928;-76
2024/03/15 03:40:49;;;;;;;;;;;6.70;64.40;;;;;;5073975;28;20018;-70
2024/03/15 03:43:15;;;;;;;;;;;6.70;64.30;;;;;;5055989;28;19916;-75
2024/03/15 03:45:43;;;;;;;;;;;6.70;64.00;;;;;;5073068;28;19947;-76
2024/03/15 03:48:08;;;;;;;;;;;6.70;64.30;;;;;;5056268;28;19924;-70
2024/03/15 03:50:34;;;;;;;;;;;6.70;64.40;;;;;;5073565;28;19932;-70
2024/03/15 03:53:00;;;;;;;;;;;6.70;64.40;;;;;;5073868;28;19995;-76
2024/03/15 03:55:26;;;;;;;;;;;6.60;64.50;;;;;;5072608;28;19925;-70
2024/03/15 03:57:54;;;;;;;;;;;6.50;64.90;;;;;;5073861;28;20063;-70
2024/03/15 04:00:20;;;;;;;;;;;6.40;65.00;;;;;;5072007;28;19920;-70
2024/03/15 04:02:48;;;;;;;;;;;6.30;65.20;;;;;;5055866;28;19920;-70
2024/03/15 04:05:15;;;;;;;;;;;6.30;65.00;;;;;;5073616;28;20391;-76
2024/03/15 04:10:29;;;;;;;;;;;6.30;65.10;;;;;;5072001;28;19924;-70
2024/03/15 04:12:56;;;;;;;;;;;6.20;65.30;;;;;;5073337;28;20277;-70
2024/03/15 04:15:22;;;;;;;;;;;6.20;65.50;;;;;;5072258;28;19920;-75
2024/03/15 04:17:48;;;;;;;;;;;6.20;65.80;;;;;;5072273;28;20281;-74
2024/03/15 04:20:16;;;;;;;;;;;6.10;65.80;;;;;;5071648;28;20043;-75
2024/03/15 04:22:42;;;;;;;;;;;6.10;66.10;;;;;;5073329;28;20471;-70
2024/03/15 04:25:09;;;;;;;;;;;6.10;66.10;;;;;;5073414;28;20024;-76
2024/03/15 04:27:35;;;;;;;;;;;6.00;66.00;;;;;;5073246;28;19916;-70
2024/03/15 04:30:18;;;;;;;;;;;6.00;66.40;;;;;;5073373;28;19924;-70
2024/03/15 04:35:30;;;;;;;;;;;6.00;66.30;;;;;;5072124;28;19928;-71
2024/03/15 04:37:56;;;;;;;;;;;6.00;66.40;;;;;;5071830;28;20008;-70
2024/03/15 04:40:22;;;;;;;;;;;6.00;66.50;;;;;;5054469;28;20043;-76
2024/03/15 04:42:48;;;;;;;;;;;6.00;66.30;;;;;;5071718;28;19920;-70
2024/03/15 04:45:15;;;;;;;;;;;6.00;66.00;;;;;;5073156;28;20208;-70
2024/03/15 04:47:41;;;;;;;;;;;6.00;65.90;;;;;;5072981;28;19943;-69
2024/03/15 04:50:09;;;;;;;;;;;6.00;65.70;;;;;;5072486;28;19928;-76
2024/03/15 04:52:36;;;;;;;;;;;5.90;65.50;;;;;;5071713;28;20333;-70
2024/03/15 04:55:03;;;;;;;;;;;5.90;65.60;;;;;;5071251;28;19924;-76
2024/03/15 04:57:29;;;;;;;;;;;5.80;65.90;;;;;;5071430;28;19992;-69
2024/03/15 04:59:55;;;;;;;;;;;5.70;66.00;;;;;;5072613;28;20392;-70
2024/03/15 05:02:21;;;;;;;;;;;5.70;65.60;;;;;;5054083;28;20361;-76
2024/03/15 05:04:49;;;;;;;;;;;5.70;65.90;;;;;;5072552;28;19926;-74
2024/03/15 05:07:15;;;;;;;;;;;5.70;65.50;;;;;;5072472;28;19916;-70
2024/03/15 05:09:41;;;;;;;;;;;5.70;66.10;;;;;;5071205;28;19924;-70
2024/03/15 05:12:08;;;;;;;;;;;5.70;66.40;;;;;;5071641;28;19943;-76
2024/03/15 05:14:35;;;;;;;;;;;5.70;66.40;;;;;;5054395;28;20393;-70
2024/03/15 05:17:02;;;;;;;;;;;5.70;65.70;;;;;;5070969;28;19916;-70
2024/03/15 05:19:29;;;;;;;;;;;5.70;66.40;;;;;;5087726;28;19971;-70
2024/03/15 05:21:55;;;;;;;;;;;5.70;66.30;;;;;;5070194;28;20339;-70
2024/03/15 05:24:20;;;;;;;;;;;5.70;66.50;;;;;;5070753;28;19924;-70
2024/03/15 05:26:47;;;;;;;;;;;5.70;66.30;;;;;;5072044;28;19916;-70
2024/03/15 05:29:14;;;;;;;;;;;5.70;66.20;;;;;;5070750;28;20320;-76
2024/03/15 05:31:40;;;;;;;;;;;5.80;66.20;;;;;;5071647;28;20411;-76
2024/03/15 05:34:07;;;;;;;;;;;5.80;66.30;;;;;;5070804;28;19916;-75
2024/03/15 05:36:34;;;;;;;;;;;5.80;66.20;;;;;;5071748;28;19917;-69
2024/03/15 05:39:01;;;;;;;;;;;5.80;66.10;;;;;;5070649;28;19923;-76
2024/03/15 05:41:27;;;;;;;;;;;5.90;66.50;;;;;;5071390;28;19947;-76
2024/03/15 05:43:53;;;;;;;;;;;5.90;66.20;;;;;;5071217;28;20437;-69
2024/03/15 05:46:20;;;;;;;;;;;5.90;66.00;;;;;;5070454;28;19936;-69
2024/03/15 05:48:46;;;;;;;;;;;5.90;65.70;;;;;;5070642;28;19946;-70
2024/03/15 05:51:12;;;;;;;;;;;5.90;65.70;;;;;;5069982;28;19924;-76
2024/03/15 05:53:38;;;;;;;;;;;5.90;65.60;;;;;;5071644;28;19946;-76
2024/03/15 05:56:04;;;;;;;;;;;5.90;65.30;;;;;;5071508;28;20323;-76
2024/03/15 05:58:30;;;;;;;;;;;5.90;65.90;;;;;;5053554;28;19925;-70
2024/03/15 06:00:56;;;;;;;;;;;5.90;66.10;;;;;;5069843;28;20420;-76
2024/03/15 06:03:22;;;;;;;;;;;6.00;65.70;;;;;;5071597;28;20604;-70
2024/03/15 06:05:48;;;;;;;;;;;6.00;65.40;;;;;;5070284;28;20011;-69
2024/03/15 06:08:13;;;;;;;;;;;6.10;65.70;;;;;;5071539;28;20011;-76
2024/03/15 06:10:39;;;;;;;;;;;6.10;65.90;;;;;;5069801;28;19940;-70
2024/03/15 06:13:05;;;;;;;;;;;6.20;65.70;;;;;;5071447;28;20007;-70
2024/03/15 06:15:31;;;;;;;;;;;6.30;65.70;;;;;;5071705;28;20011;-70
2024/03/15 06:17:57;;;;;;;;;;;6.30;66.10;;;;;;5070289;28;20019;-70
2024/03/15 06:20:23;;;;;;;;;;;6.30;66.10;;;;;;5061437;28;20031;-70
2024/03/15 06:22:50;;;;;;;;;;;6.40;65.70;;;;;;5085422;28;20063;-70
2024/03/15 06:25:15;;;;;;;;;;;6.50;65.80;;;;;;5069992;28;19927;-76
2024/03/15 06:27:44;;;;;;;;;;;6.50;66.70;;;;;;5070149;28;20381;-71
2024/03/15 06:30:12;;;;;;;;;;;6.60;65.50;;;;;;5069724;28;19924;-70
2024/03/15 06:32:39;;;;;;;;;;;6.60;66.00;;;;;;5070249;28;19921;-76
2024/03/15 06:37:54;;;;;;;;;;;6.80;65.50;;;;;;5070316;28;20316;-70
2024/03/15 06:43:35;;;;;;;;;;;6.90;65.40;;;;;;5070128;28;19923;-70
2024/03/15 06:46:08;;;;;;;;;;;7.00;65.40;;;;;;5070102;28;19921;-70
2024/03/15 06:48:44;;;;;;;;;;;7.00;65.40;;;;;;5071092;28;19920;-76
2024/03/15 06:53:56;;;;;;;;;;;7.10;65.60;;;;;;5069657;28;19974;-70
2024/03/15 06:56:22;;;;;;;;;;;7.20;65.90;;;;;;5071369;28;19970;-75
2024/03/15 06:58:48;;;;;;;;;;;7.30;65.80;;;;;;5074975;28;19920;-70
2024/03/15 07:01:14;;;;;;;;;;;7.40;65.50;;;;;;5074551;28;20015;-70
2024/03/15 07:03:40;;;;;;;;;;;7.50;65.90;;;;;;5074908;28;20035;-70
2024/03/15 07:06:06;;;;;;;;;;;7.60;66.30;;;;;;5073448;28;20007;-76
2024/03/15 07:08:32;;;;;;;;;;;7.70;66.00;;;;;;5073450;28;20365;-70
2024/03/15 07:10:58;;;;;;;;;;;7.80;66.00;;;;;;5074141;28;19924;-72
2024/03/15 07:13:24;;;;;;;;;;;7.90;65.60;;;;;;5073278;28;19916;-70
2024/03/15 07:15:50;;;;;;;;;;;8.10;65.10;;;;;;5069729;28;19967;-70
2024/03/15 07:18:16;;;;;;;;;;;8.20;64.70;;;;;;5053456;28;20020;-77
2024/03/15 07:20:42;;;;;;;;;;;8.30;65.60;;;;;;5053009;28;19928;-76
2024/03/15 07:23:08;;;;;;;;;;;8.50;65.00;;;;;;5057285;28;19921;-69
2024/03/15 07:25:37;;;;;;;;;;;8.60;65.00;;;;;;5073158;28;19985;-70
2024/03/15 07:28:03;;;;;;;;;;;8.70;65.50;;;;;;5073000;28;19916;-76
2024/03/15 07:30:29;;;;;;;;;;;8.80;65.80;;;;;;5073978;28;19977;-70
2024/03/15 07:32:55;;;;;;;;;;;9.00;65.50;;;;;;5074750;28;20010;-76
2024/03/15 07:35:21;;;;;;;;;;;9.10;64.90;;;;;;5072901;28;19966;-70
2024/03/15 07:37:47;;;;;;;;;;;9.20;64.60;;;;;;5056414;28;20003;-74
2024/03/15 07:40:14;;;;;;;;;;;9.40;64.40;;;;;;5074032;28;19943;-70
2024/03/15 07:45:26;;;;;;;;;;;9.60;63.20;;;;;;5069852;28;19929;-76
2024/03/15 07:47:52;;;;;;;;;;;9.90;63.10;;;;;;5070513;28;20019;-70
2024/03/15 07:50:18;;;;;;;;;;;10.10;62.60;;;;;;5073700;28;19952;-70
2024/03/15 07:52:44;;;;;;;;;;;10.30;62.00;;;;;;5072613;28;19916;-76
2024/03/15 07:55:09;;;;;;;;;;;10.60;61.40;;;;;;5072496;28;20043;-71
2024/03/15 07:57:35;;;;;;;;;;;10.90;61.20;;;;;;5072504;28;20015;-74
2024/03/15 08:00:05;;;;;;;;;;;11.50;61.50;;;;;;5072383;28;20270;-71
2024/03/15 08:02:30;;;;;;;;;;;12.10;60.90;;;;;;5066704;28;20117;-70
2024/03/15 08:04:56;;;;;;;;;;;13.00;60.70;;;;;;5052354;28;20027;-76
2024/03/15 08:07:22;;;;;;;;;;;13.90;58.70;;;;;;5051912;28;20012;-70
2024/03/15 08:09:48;;;;;;;;;;;14.70;57.30;;;;;;5052476;28;19931;-70
2024/03/15 08:12:14;;;;;;;;;;;15.60;55.90;;;;;;5051796;28;19971;-71
2024/03/15 08:14:41;;;;;;;;;;;16.50;51.80;;;;;;5061168;28;19924;-76
2024/03/15 08:17:07;;;;;;;;;;;17.20;48.50;;;;;;5065957;28;20010;-70
2024/03/15 08:19:33;;;;;;;;;;;18.10;45.40;;;;;;5067841;28;20335;-70
2024/03/15 08:22:01;;;;;;;;;;;19.00;44.00;;;;;;5056294;28;19928;-70
2024/03/15 08:24:27;;;;;;;;;;;19.70;41.00;;;;;;5065415;28;19925;-71
2024/03/15 08:26:54;;;;;;;;;;;20.50;39.20;;;;;;5049979;28;20003;-75
2024/03/15 08:29:21;;;;;;;;;;;21.10;37.10;;;;;;5055969;28;19947;-76
2024/03/15 08:31:47;;;;;;;;;;;21.90;36.00;;;;;;5052857;28;19920;-76
2024/03/15 08:34:14;;;;;;;;;;;22.70;33.90;;;;;;5065149;28;19920;-76
2024/03/15 08:36:40;;;;;;;;;;;23.40;32.20;;;;;;5051634;28;19924;-71
2024/03/15 08:39:15;;;;;;;;;;;24.00;31.40;;;;;;5051967;28;19924;-71
2024/03/15 08:41:42;;;;;;;;;;;24.60;30.30;;;;;;5052712;28;20321;-76
2024/03/15 08:44:09;;;;;;;;;;;25.40;28.00;;;;;;5052343;28;19927;-75
2024/03/15 08:46:39;;;;;;;;;;;25.90;26.40;;;;;;5052954;28;19928;-71
2024/03/15 08:49:05;;;;;;;;;;;26.40;26.50;;;;;;5051753;28;19924;-75
2024/03/15 08:51:31;;;;;;;;;;;27.00;25.30;;;;;;5052289;28;20012;-75
2024/03/15 08:53:57;;;;;;;;;;;27.70;24.80;;;;;;5060362;28;20003;-72
2024/03/15 08:56:24;;;;;;;;;;;28.60;23.90;;;;;;5071325;28;19917;-72
2024/03/15 08:58:50;;;;;;;;;;;28.80;22.20;;;;;;5054911;28;19921;-72
2024/03/15 09:01:18;;;;;;;;;;;28.80;22.20;;;;;;5072408;28;19935;-75
2024/03/15 09:03:46;;;;;;;;;;;28.90;21.70;;;;;;5071514;28;19999;-76
2024/03/15 09:06:11;;;;;;;;;;;29.60;21.10;;;;;;5072635;28;19927;-75
2024/03/15 09:08:38;;;;;;;;;;;30.40;19.60;;;;;;5071298;28;20007;-75
2024/03/15 09:11:04;;;;;;;;;;;31.00;19.50;;;;;;5071512;28;19977;-75
2024/03/15 09:13:30;;;;;;;;;;;31.80;18.20;;;;;;5072592;28;19929;-72
2024/03/15 09:15:58;;;;;;;;;;;32.60;16.30;;;;;;5053492;28;21298;-75
2024/03/15 09:18:25;;;;;;;;;;;32.80;15.70;;;;;;5071356;28;19959;-75
2024/03/15 09:20:54;;;;;;;;;;;33.20;15.20;;;;;;5070438;28;20317;-75
2024/03/15 09:23:21;;;;;;;;;;;33.70;15.00;;;;;;5070844;28;20370;-72
2024/03/15 09:25:47;;;;;;;;;;;34.10;14.30;;;;;;5072205;28;19920;-72
2024/03/15 09:28:13;;;;;;;;;;;34.50;13.80;;;;;;5060940;28;19921;-75
2024/03/15 09:30:47;;;;;;;;;;;34.90;12.90;;;;;;5051888;28;19929;-72
2024/03/15 09:33:13;;;;;;;;;;;35.60;12.00;;;;;;5051963;28;19963;-73
2024/03/15 09:35:40;;;;;;;;;;;35.70;11.50;;;;;;5052218;28;19928;-75
2024/03/15 09:38:07;;;;;;;;;;;35.90;10.00;;;;;;5050582;28;19917;-73
2024/03/15 09:40:34;;;;;;;;;;;36.30;10.50;;;;;;5050194;28;20330;-74
2024/03/15 09:43:00;;;;;;;;;;;36.60;10.90;;;;;;5050569;28;19923;-75
2024/03/15 09:45:26;;;;;;;;;;;37.00;10.60;;;;;;5043402;28;19917;-72
2024/03/15 09:47:53;;;;;;;;;;;37.80;10.50;;;;;;5050715;28;19924;-73
2024/03/15 09:50:21;;;;;;;;;;;38.10;9.40;;;;;;5066531;28;20225;-75
2024/03/15 09:52:49;;;;;;;;;;;37.60;9.10;;;;;;5033879;28;19917;-75
2024/03/15 09:55:19;;;;;;;;;;;37.50;9.20;;;;;;5050259;28;19999;-75
2024/03/15 09:57:48;;;;;;;;;;;37.60;9.30;;;;;;5050520;28;19921;-75
2024/03/15 10:00:34;;;;;;;;;;;36.90;9.80;;;;;;5049961;28;19925;-72
2024/03/15 10:03:00;;;;;;;;;;;37.00;9.90;;;;;;5067769;28;20293;-75
2024/03/15 10:05:26;;;;;;;;;;;38.10;10.50;;;;;;5070351;28;19929;-72
2024/03/15 10:07:52;;;;;;;;;;;39.00;10.00;;;;;;5070396;28;20023;-75
2024/03/15 10:10:19;;;;;;;;;;;39.20;9.10;;;;;;5071157;28;20285;-72
2024/03/15 10:13:04;;;;;;;;;;;39.40;8.70;;;;;;5053470;28;20365;-73
2024/03/15 10:15:30;;;;;;;;;;;39.60;8.60;;;;;;5069362;28;20050;-72
2024/03/15 10:17:56;;;;;;;;;;;39.20;9.30;;;;;;5051617;28;19967;-76
2024/03/15 10:20:23;;;;;;;;;;;38.80;9.20;;;;;;5070940;28;19920;-76
2024/03/15 10:23:10;;;;;;;;;;;38.70;9.60;;;;;;5070025;28;19917;-72
2024/03/15 10:25:35;;;;;;;;;;;38.90;9.20;;;;;;5070160;28;19927;-75
2024/03/15 10:28:01;;;;;;;;;;;38.80;9.60;;;;;;5070111;28;20023;-72
2024/03/15 10:33:12;;;;;;;;;;;38.60;9.20;;;;;;5074429;28;20397;-75
2024/03/15 10:35:38;;;;;;;;;;;39.30;8.10;;;;;;5075592;28;19917;-75
2024/03/15 10:38:05;;;;;;;;;;;39.70;8.70;;;;;;5074192;28;19925;-72
2024/03/15 10:40:34;;;;;;;;;;;39.70;8.30;;;;;;5075242;28;19974;-75
2024/03/15 10:43:08;;;;;;;;;;;39.80;8.60;;;;;;5074179;28;19928;-75
2024/03/15 10:45:35;;;;;;;;;;;40.30;8.80;;;;;;5074281;28;19921;-73
2024/03/15 10:48:02;;;;;;;;;;;41.00;8.50;;;;;;5075104;28;19927;-75
2024/03/15 10:50:28;;;;;;;;;;;41.50;7.00;;;;;;5073404;28;20514;-73
2024/03/15 10:52:55;;;;;;;;;;;41.10;7.20;;;;;;5073596;28;19962;-73
2024/03/15 10:55:25;;;;;;;;;;;40.00;8.00;;;;;;5073646;28;19924;-73
2024/03/15 10:58:11;;;;;;;;;;;39.30;8.80;;;;;;5073833;28;19924;-72
2024/03/15 11:00:38;;;;;;;;;;;39.70;8.20;;;;;;5074749;28;20301;-72
2024/03/15 11:03:28;;;;;;;;;;;39.70;8.80;;;;;;5073642;28;19954;-72
2024/03/15 11:05:54;;;;;;;;;;;39.40;8.60;;;;;;5074936;28;19931;-73
2024/03/15 11:08:21;;;;;;;;;;;38.60;9.20;;;;;;5074688;28;20378;-71
2024/03/15 11:11:06;;;;;;;;;;;38.80;8.80;;;;;;5057067;28;20038;-72
2024/03/15 11:13:33;;;;;;;;;;;39.30;8.00;;;;;;5054546;28;19973;-75
2024/03/15 11:15:59;;;;;;;;;;;39.20;8.70;;;;;;5059585;28;19981;-72
2024/03/15 11:18:43;;;;;;;;;;;38.70;9.30;;;;;;5074720;28;19921;-72
2024/03/15 11:21:28;;;;;;;;;;;38.70;8.40;;;;;;5072725;28;19940;-75
2024/03/15 11:24:22;;;;;;;;;;;39.30;8.80;;;;;;5073021;28;19928;-75
2024/03/15 11:26:51;;;;;;;;;;;39.00;8.50;;;;;;5074603;28;20094;-72
2024/03/15 11:29:17;;;;;;;;;;;38.20;9.50;;;;;;5073242;28;19935;-72
2024/03/15 11:31:44;;;;;;;;;;;37.80;9.00;;;;;;5072650;28;20007;-72
2024/03/15 11:34:10;;;;;;;;;;;37.80;9.70;;;;;;5074367;28;19923;-75
2024/03/15 11:36:36;;;;;;;;;;;37.50;8.60;;;;;;5056297;28;20235;-73
2024/03/15 11:39:02;;;;;;;;;;;38.10;10.30;;;;;;5074208;28;19963;-75
2024/03/15 11:41:32;;;;;;;;;;;38.20;8.70;;;;;;5071288;28;20274;-75
2024/03/15 11:43:57;;;;;;;;;;;39.10;8.50;;;;;;5070955;28;19931;-75
2024/03/15 11:46:24;;;;;;;;;;;39.90;8.20;;;;;;5052423;28;19949;-75
2024/03/15 11:48:49;;;;;;;;;;;40.60;7.70;;;;;;5069105;28;19927;-71
2024/03/15 11:51:15;;;;;;;;;;;41.10;8.60;;;;;;5053735;28;19924;-75
2024/03/15 11:53:41;;;;;;;;;;;42.00;7.30;;;;;;5052558;28;19923;-75
2024/03/15 11:56:07;;;;;;;;;;;43.30;7.00;;;;;;5053980;28;19916;-75
2024/03/15 11:58:39;;;;;;;;;;;43.60;7.10;;;;;;5052504;28;20023;-76
2024/03/15 12:01:06;;;;;;;;;;;43.20;6.80;;;;;;5053549;28;19924;-72
2024/03/15 12:03:32;;;;;;;;;;;42.60;6.60;;;;;;5068887;28;19917;-72
2024/03/15 12:06:00;;;;;;;;;;;41.20;7.80;;;;;;5067228;28;19928;-72
2024/03/15 12:08:30;;;;;;;;;;;40.50;7.50;;;;;;5069657;28;20466;-75
2024/03/15 12:10:56;;;;;;;;;;;41.00;7.70;;;;;;5063776;28;19928;-72
2024/03/15 12:13:42;;;;;;;;;;;41.30;7.80;;;;;;5062054;28;19917;-73
2024/03/15 12:16:08;;;;;;;;;;;42.00;7.70;;;;;;5042818;28;19928;-72
2024/03/15 12:18:35;;;;;;;;;;;42.80;7.10;;;;;;5057659;28;19928;-72
2024/03/15 12:21:02;;;;;;;;;;;42.90;7.40;;;;;;5051289;28;20317;-76
2024/03/15 12:23:28;;;;;;;;;;;42.70;8.10;;;;;;5051760;28;19920;-72
2024/03/15 12:25:53;;;;;;;;;;;42.40;7.80;;;;;;5053615;28;20007;-72
2024/03/15 12:28:21;;;;;;;;;;;42.80;7.80;;;;;;5053107;28;19928;-76
2024/03/15 12:30:53;;;;;;;;;;;43.70;7.10;;;;;;5068306;28;19924;-72
2024/03/15 12:33:19;;;;;;;;;;;43.80;7.50;;;;;;5053267;28;20380;-72
2024/03/15 12:35:46;;;;;;;;;;;44.00;7.80;;;;;;5051898;28;19934;-75
2024/03/15 12:38:14;;;;;;;;;;;44.10;6.90;;;;;;5052968;28;20070;-72
2024/03/15 12:40:43;;;;;;;;;;;44.50;6.80;;;;;;5067971;28;19964;-71
2024/03/15 12:43:10;;;;;;;;;;;44.80;7.00;;;;;;5051540;28;20420;-75
2024/03/15 12:45:37;;;;;;;;;;;45.50;6.50;;;;;;5051930;28;19920;-72
2024/03/15 12:48:03;;;;;;;;;;;45.60;5.80;;;;;;5051612;28;19920;-75
2024/03/15 12:50:31;;;;;;;;;;;46.00;6.20;;;;;;5052604;28;20011;-76
2024/03/15 12:52:57;;;;;;;;;;;45.70;6.20;;;;;;5065253;28;19916;-72
2024/03/15 12:55:24;;;;;;;;;;;45.50;6.60;;;;;;5034738;28;19925;-75
2024/03/15 12:57:50;;;;;;;;;;;45.40;7.00;;;;;;5052787;28;19929;-75
2024/03/15 13:00:18;;;;;;;;;;;45.80;6.00;;;;;;5050718;28;20374;-72
2024/03/15 13:02:44;;;;;;;;;;;46.10;6.40;;;;;;5053656;28;20345;-72
2024/03/15 13:05:14;;;;;;;;;;;46.40;6.20;;;;;;5072489;28;20370;-72
2024/03/15 13:07:40;;;;;;;;;;;47.20;6.00;;;;;;5072453;28;19920;-72
2024/03/15 13:10:07;;;;;;;;;;;48.00;6.00;;;;;;5052263;28;20403;-76
2024/03/15 13:12:33;;;;;;;;;;;48.50;5.60;;;;;;5067832;28;20366;-72
2024/03/15 13:14:58;;;;;;;;;;;48.50;5.60;;;;;;5052603;28;19925;-75
2024/03/15 13:17:28;;;;;;;;;;;48.30;5.40;;;;;;5051379;28;20376;-71
2024/03/15 13:19:54;;;;;;;;;;;47.80;4.60;;;;;;5051591;28;20297;-72
2024/03/15 13:22:20;;;;;;;;;;;47.60;5.70;;;;;;5033726;28;20277;-75
2024/03/15 13:24:46;;;;;;;;;;;48.00;5.50;;;;;;5052377;28;19925;-75
2024/03/15 13:27:13;;;;;;;;;;;48.30;5.50;;;;;;5050861;28;19916;-72
2024/03/15 13:29:58;;;;;;;;;;;48.20;5.10;;;;;;5067650;28;19948;-71
2024/03/15 13:32:25;;;;;;;;;;;48.30;5.20;;;;;;5052285;28;20358;-71
2024/03/15 13:34:51;;;;;;;;;;;48.00;5.00;;;;;;5052203;28;19970;-72
2024/03/15 13:37:17;;;;;;;;;;;47.60;5.50;;;;;;5051899;28;20012;-75
2024/03/15 13:39:43;;;;;;;;;;;46.80;6.20;;;;;;5050554;28;19960;-75
2024/03/15 13:42:09;;;;;;;;;;;46.10;6.40;;;;;;5049953;28;20437;-72
2024/03/15 13:44:35;;;;;;;;;;;45.40;6.60;;;;;;5045685;28;20007;-75
2024/03/15 13:47:01;;;;;;;;;;;44.70;6.80;;;;;;5049922;28;19960;-71
2024/03/15 13:49:27;;;;;;;;;;;43.80;7.50;;;;;;5051894;28;20397;-72
2024/03/15 13:51:53;;;;;;;;;;;43.10;7.30;;;;;;5051359;28;19932;-71
2024/03/15 13:54:19;;;;;;;;;;;43.30;7.60;;;;;;5050265;28;20381;-76
2024/03/15 13:56:46;;;;;;;;;;;43.30;7.00;;;;;;5051683;28;19963;-76
2024/03/15 13:59:13;;;;;;;;;;;43.50;7.40;;;;;;5051357;28;19921;-75
2024/03/15 14:01:39;;;;;;;;;;;43.70;7.10;;;;;;5051482;28;19982;-71
2024/03/15 14:04:08;;;;;;;;;;;43.50;7.00;;;;;;5049766;28;19916;-75
2024/03/15 14:06:34;;;;;;;;;;;42.60;7.80;;;;;;5067012;28;19943;-75
2024/03/15 14:09:02;;;;;;;;;;;42.40;7.80;;;;;;5049999;28;19920;-75
2024/03/15 14:11:28;;;;;;;;;;;42.90;7.30;;;;;;5049640;28;20432;-71
2024/03/15 14:13:54;;;;;;;;;;;43.70;7.10;;;;;;5033657;28;19966;-71
2024/03/15 14:16:20;;;;;;;;;;;44.50;7.00;;;;;;5053807;28;19939;-76
2024/03/15 14:18:47;;;;;;;;;;;44.50;7.10;;;;;;5065421;28;19967;-75
2024/03/15 14:23:57;;;;;;;;;;;44.00;7.10;;;;;;5059179;28;19924;-75
2024/03/15 14:26:23;;;;;;;;;;;44.00;6.70;;;;;;5050101;28;19956;-75
2024/03/15 14:28:49;;;;;;;;;;;43.90;7.40;;;;;;5051665;28;19991;-71
2024/03/15 14:31:15;;;;;;;;;;;43.50;7.60;;;;;;5051036;28;20012;-75
2024/03/15 14:33:41;;;;;;;;;;;43.40;8.10;;;;;;5057631;28;19916;-75
2024/03/15 14:36:07;;;;;;;;;;;43.20;8.00;;;;;;5070127;28;20018;-72
2024/03/15 14:38:33;;;;;;;;;;;42.90;7.80;;;;;;5069836;28;20487;-76
2024/03/15 14:40:59;;;;;;;;;;;42.50;8.00;;;;;;5071041;28;19974;-73
2024/03/15 14:43:24;;;;;;;;;;;42.30;8.40;;;;;;5069999;28;20036;-75
2024/03/15 14:45:51;;;;;;;;;;;41.90;8.30;;;;;;5071513;28;20015;-75
2024/03/15 14:48:18;;;;;;;;;;;41.80;8.00;;;;;;5071211;28;20341;-76
2024/03/15 14:50:44;;;;;;;;;;;41.90;7.60;;;;;;5069242;28;19931;-71